sensor_id;sensor_type;location;lat;lon;timestamp;P1;durP1;ratioP1;P2;durP2;ratioP2
77775;SDS011;66965;43.328;6.668;2023-04-21T00:00:25;7.32;;;3.55;;
77775;SDS011;66965;43.328;6.668;2023-04-21T00:02:50;6.75;;;3.40;;
77775;SDS011;66965;43.328;6.668;2023-04-21T00:05:15;6.33;;;3.00;;
77775;SDS011;66965;43.328;6.668;2023-04-21T00:07:41;7.93;;;3.40;;
77775;SDS011;66965;43.328;6.668;2023-04-21T00:10:07;5.70;;;3.00;;
77775;SDS011;66965;43.328;6.668;2023-04-21T00:12:32;7.75;;;3.70;;
77775;SDS011;66965;43.328;6.668;2023-04-21T00:14:57;7.80;;;3.67;;
77775;SDS011;66965;43.328;6.668;2023-04-21T00:17:23;7.17;;;3.27;;
77775;SDS011;66965;43.328;6.668;2023-04-21T00:19:48;7.50;;;3.73;;
77775;SDS011;66965;43.328;6.668;2023-04-21T00:22:13;6.13;;;3.50;;
77775;SDS011;66965;43.328;6.668;2023-04-21T00:24:39;8.27;;;3.22;;
77775;SDS011;66965;43.328;6.668;2023-04-21T00:27:04;8.40;;;3.53;;
77775;SDS011;66965;43.328;6.668;2023-04-21T00:29:30;7.90;;;3.88;;
77775;SDS011;66965;43.328;6.668;2023-04-21T00:31:55;6.83;;;3.23;;
77775;SDS011;66965;43.328;6.668;2023-04-21T00:34:20;6.13;;;2.93;;
77775;SDS011;66965;43.328;6.668;2023-04-21T00:36:45;8.03;;;3.27;;
77775;SDS011;66965;43.328;6.668;2023-04-21T00:39:11;6.43;;;3.30;;
77775;SDS011;66965;43.328;6.668;2023-04-21T00:41:36;7.03;;;3.70;;
77775;SDS011;66965;43.328;6.668;2023-04-21T00:44:06;5.57;;;3.47;;
77775;SDS011;66965;43.328;6.668;2023-04-21T00:46:32;6.30;;;3.90;;
77775;SDS011;66965;43.328;6.668;2023-04-21T00:48:57;9.07;;;4.05;;
77775;SDS011;66965;43.328;6.668;2023-04-21T00:51:23;5.53;;;4.13;;
77775;SDS011;66965;43.328;6.668;2023-04-21T00:53:48;7.65;;;3.80;;
77775;SDS011;66965;43.328;6.668;2023-04-21T00:56:14;6.20;;;3.50;;
77775;SDS011;66965;43.328;6.668;2023-04-21T00:58:41;7.03;;;3.45;;
77775;SDS011;66965;43.328;6.668;2023-04-21T01:01:06;5.45;;;3.13;;
77775;SDS011;66965;43.328;6.668;2023-04-21T01:03:32;6.38;;;3.83;;
77775;SDS011;66965;43.328;6.668;2023-04-21T01:05:57;5.70;;;2.97;;
77775;SDS011;66965;43.328;6.668;2023-04-21T01:08:23;5.53;;;3.10;;
77775;SDS011;66965;43.328;6.668;2023-04-21T01:10:48;9.67;;;3.40;;
77775;SDS011;66965;43.328;6.668;2023-04-21T01:13:13;5.77;;;3.40;;
77775;SDS011;66965;43.328;6.668;2023-04-21T01:15:38;7.13;;;3.17;;
77775;SDS011;66965;43.328;6.668;2023-04-21T01:18:04;6.17;;;3.17;;
77775;SDS011;66965;43.328;6.668;2023-04-21T01:20:29;8.10;;;3.70;;
77775;SDS011;66965;43.328;6.668;2023-04-21T01:22:54;7.97;;;3.57;;
77775;SDS011;66965;43.328;6.668;2023-04-21T01:25:19;6.23;;;3.60;;
77775;SDS011;66965;43.328;6.668;2023-04-21T01:27:49;12.55;;;3.85;;
77775;SDS011;66965;43.328;6.668;2023-04-21T01:32:41;6.17;;;4.03;;
77775;SDS011;66965;43.328;6.668;2023-04-21T01:35:06;5.40;;;3.33;;
77775;SDS011;66965;43.328;6.668;2023-04-21T01:37:32;6.35;;;3.30;;
77775;SDS011;66965;43.328;6.668;2023-04-21T01:39:59;7.80;;;3.53;;
77775;SDS011;66965;43.328;6.668;2023-04-21T01:42:25;5.28;;;3.60;;
77775;SDS011;66965;43.328;6.668;2023-04-21T01:44:51;6.07;;;3.30;;
77775;SDS011;66965;43.328;6.668;2023-04-21T01:47:18;5.63;;;3.22;;
77775;SDS011;66965;43.328;6.668;2023-04-21T01:49:43;6.00;;;3.20;;
77775;SDS011;66965;43.328;6.668;2023-04-21T01:52:08;8.57;;;3.60;;
77775;SDS011;66965;43.328;6.668;2023-04-21T01:54:34;5.50;;;3.53;;
77775;SDS011;66965;43.328;6.668;2023-04-21T01:56:59;6.38;;;3.42;;
77775;SDS011;66965;43.328;6.668;2023-04-21T01:59:25;5.32;;;3.60;;
77775;SDS011;66965;43.328;6.668;2023-04-21T02:01:51;8.70;;;3.83;;
77775;SDS011;66965;43.328;6.668;2023-04-21T02:04:16;6.17;;;4.37;;
77775;SDS011;66965;43.328;6.668;2023-04-21T02:06:41;6.03;;;3.87;;
77775;SDS011;66965;43.328;6.668;2023-04-21T02:09:07;8.83;;;3.70;;
77775;SDS011;66965;43.328;6.668;2023-04-21T02:11:32;8.07;;;3.93;;
77775;SDS011;66965;43.328;6.668;2023-04-21T02:13:57;6.50;;;3.30;;
77775;SDS011;66965;43.328;6.668;2023-04-21T02:16:23;5.93;;;3.33;;
77775;SDS011;66965;43.328;6.668;2023-04-21T02:18:51;6.80;;;4.15;;
77775;SDS011;66965;43.328;6.668;2023-04-21T02:21:18;7.82;;;4.65;;
77775;SDS011;66965;43.328;6.668;2023-04-21T02:23:43;5.30;;;3.40;;
77775;SDS011;66965;43.328;6.668;2023-04-21T02:26:08;8.83;;;4.07;;
77775;SDS011;66965;43.328;6.668;2023-04-21T02:28:33;6.33;;;3.80;;
77775;SDS011;66965;43.328;6.668;2023-04-21T02:30:59;7.27;;;3.93;;
77775;SDS011;66965;43.328;6.668;2023-04-21T02:33:24;9.30;;;3.63;;
77775;SDS011;66965;43.328;6.668;2023-04-21T02:35:49;8.20;;;3.87;;
77775;SDS011;66965;43.328;6.668;2023-04-21T02:38:14;8.20;;;4.00;;
77775;SDS011;66965;43.328;6.668;2023-04-21T02:40:40;6.93;;;4.18;;
77775;SDS011;66965;43.328;6.668;2023-04-21T02:43:06;8.95;;;3.83;;
77775;SDS011;66965;43.328;6.668;2023-04-21T02:45:31;8.83;;;4.00;;
77775;SDS011;66965;43.328;6.668;2023-04-21T02:47:57;5.78;;;4.03;;
77775;SDS011;66965;43.328;6.668;2023-04-21T02:50:23;8.05;;;3.58;;
77775;SDS011;66965;43.328;6.668;2023-04-21T02:52:48;7.03;;;3.88;;
77775;SDS011;66965;43.328;6.668;2023-04-21T02:55:14;7.00;;;3.80;;
77775;SDS011;66965;43.328;6.668;2023-04-21T02:57:39;6.73;;;3.97;;
77775;SDS011;66965;43.328;6.668;2023-04-21T03:00:04;6.47;;;4.17;;
77775;SDS011;66965;43.328;6.668;2023-04-21T03:02:31;6.00;;;3.83;;
77775;SDS011;66965;43.328;6.668;2023-04-21T03:04:56;7.23;;;3.63;;
77775;SDS011;66965;43.328;6.668;2023-04-21T03:07:22;7.50;;;4.28;;
77775;SDS011;66965;43.328;6.668;2023-04-21T03:09:47;7.07;;;3.80;;
77775;SDS011;66965;43.328;6.668;2023-04-21T03:12:12;7.37;;;4.27;;
77775;SDS011;66965;43.328;6.668;2023-04-21T03:14:37;7.57;;;4.20;;
77775;SDS011;66965;43.328;6.668;2023-04-21T03:17:03;9.27;;;4.17;;
77775;SDS011;66965;43.328;6.668;2023-04-21T03:19:28;9.63;;;4.33;;
77775;SDS011;66965;43.328;6.668;2023-04-21T03:21:53;8.63;;;3.83;;
77775;SDS011;66965;43.328;6.668;2023-04-21T03:24:19;6.80;;;3.85;;
77775;SDS011;66965;43.328;6.668;2023-04-21T03:26:45;6.93;;;4.10;;
77775;SDS011;66965;43.328;6.668;2023-04-21T03:29:10;6.57;;;3.87;;
77775;SDS011;66965;43.328;6.668;2023-04-21T03:31:35;6.83;;;4.10;;
77775;SDS011;66965;43.328;6.668;2023-04-21T03:34:01;7.20;;;4.50;;
77775;SDS011;66965;43.328;6.668;2023-04-21T03:36:26;8.73;;;4.37;;
77775;SDS011;66965;43.328;6.668;2023-04-21T03:38:51;7.33;;;4.00;;
77775;SDS011;66965;43.328;6.668;2023-04-21T03:41:17;6.97;;;3.93;;
77775;SDS011;66965;43.328;6.668;2023-04-21T03:43:42;7.60;;;4.10;;
77775;SDS011;66965;43.328;6.668;2023-04-21T03:46:07;8.33;;;4.10;;
77775;SDS011;66965;43.328;6.668;2023-04-21T03:48:40;6.28;;;3.65;;
77775;SDS011;66965;43.328;6.668;2023-04-21T03:51:06;7.20;;;4.17;;
77775;SDS011;66965;43.328;6.668;2023-04-21T03:53:31;8.65;;;3.78;;
77775;SDS011;66965;43.328;6.668;2023-04-21T03:55:56;7.40;;;3.80;;
77775;SDS011;66965;43.328;6.668;2023-04-21T03:58:21;6.67;;;4.20;;
77775;SDS011;66965;43.328;6.668;2023-04-21T04:00:47;8.63;;;4.70;;
77775;SDS011;66965;43.328;6.668;2023-04-21T04:03:12;10.03;;;4.27;;
77775;SDS011;66965;43.328;6.668;2023-04-21T04:05:37;8.83;;;4.73;;
77775;SDS011;66965;43.328;6.668;2023-04-21T04:08:02;8.87;;;4.40;;
77775;SDS011;66965;43.328;6.668;2023-04-21T04:10:28;7.45;;;4.00;;
77775;SDS011;66965;43.328;6.668;2023-04-21T04:12:53;8.80;;;4.00;;
77775;SDS011;66965;43.328;6.668;2023-04-21T04:15:19;5.60;;;3.67;;
77775;SDS011;66965;43.328;6.668;2023-04-21T04:17:44;5.97;;;3.33;;
77775;SDS011;66965;43.328;6.668;2023-04-21T04:20:09;6.23;;;3.90;;
77775;SDS011;66965;43.328;6.668;2023-04-21T04:22:35;7.93;;;4.20;;
77775;SDS011;66965;43.328;6.668;2023-04-21T04:25:00;7.00;;;3.77;;
77775;SDS011;66965;43.328;6.668;2023-04-21T04:27:26;8.63;;;3.70;;
77775;SDS011;66965;43.328;6.668;2023-04-21T04:29:51;10.73;;;3.42;;
77775;SDS011;66965;43.328;6.668;2023-04-21T04:32:17;7.63;;;3.83;;
77775;SDS011;66965;43.328;6.668;2023-04-21T04:34:42;7.38;;;3.60;;
77775;SDS011;66965;43.328;6.668;2023-04-21T04:37:07;6.00;;;3.30;;
77775;SDS011;66965;43.328;6.668;2023-04-21T04:39:35;6.95;;;3.75;;
77775;SDS011;66965;43.328;6.668;2023-04-21T04:42:01;6.90;;;5.55;;
77775;SDS011;66965;43.328;6.668;2023-04-21T04:44:27;6.28;;;4.32;;
77775;SDS011;66965;43.328;6.668;2023-04-21T04:46:52;5.43;;;3.80;;
77775;SDS011;66965;43.328;6.668;2023-04-21T04:49:18;7.38;;;4.03;;
77775;SDS011;66965;43.328;6.668;2023-04-21T04:51:44;7.80;;;4.03;;
77775;SDS011;66965;43.328;6.668;2023-04-21T04:54:09;9.20;;;4.10;;
77775;SDS011;66965;43.328;6.668;2023-04-21T04:56:34;8.07;;;4.30;;
77775;SDS011;66965;43.328;6.668;2023-04-21T04:59:00;7.30;;;4.10;;
77775;SDS011;66965;43.328;6.668;2023-04-21T05:01:25;8.57;;;4.20;;
77775;SDS011;66965;43.328;6.668;2023-04-21T05:03:54;8.68;;;4.03;;
77775;SDS011;66965;43.328;6.668;2023-04-21T05:06:20;11.32;;;4.72;;
77775;SDS011;66965;43.328;6.668;2023-04-21T05:08:45;11.63;;;5.03;;
77775;SDS011;66965;43.328;6.668;2023-04-21T05:11:10;11.50;;;5.10;;
77775;SDS011;66965;43.328;6.668;2023-04-21T05:13:36;13.20;;;4.07;;
77775;SDS011;66965;43.328;6.668;2023-04-21T05:16:01;13.70;;;5.17;;
77775;SDS011;66965;43.328;6.668;2023-04-21T05:18:26;6.03;;;3.80;;
77775;SDS011;66965;43.328;6.668;2023-04-21T05:20:52;8.85;;;4.25;;
77775;SDS011;66965;43.328;6.668;2023-04-21T05:23:17;5.93;;;4.20;;
77775;SDS011;66965;43.328;6.668;2023-04-21T05:25:43;9.23;;;4.78;;
77775;SDS011;66965;43.328;6.668;2023-04-21T05:28:08;12.27;;;4.63;;
77775;SDS011;66965;43.328;6.668;2023-04-21T05:30:33;8.70;;;4.40;;
77775;SDS011;66965;43.328;6.668;2023-04-21T05:32:59;9.03;;;3.87;;
77775;SDS011;66965;43.328;6.668;2023-04-21T05:35:24;6.50;;;3.50;;
77775;SDS011;66965;43.328;6.668;2023-04-21T05:37:49;15.93;;;4.40;;
77775;SDS011;66965;43.328;6.668;2023-04-21T05:40:15;6.30;;;3.97;;
77775;SDS011;66965;43.328;6.668;2023-04-21T05:42:40;10.17;;;3.70;;
77775;SDS011;66965;43.328;6.668;2023-04-21T05:45:05;6.87;;;3.70;;
77775;SDS011;66965;43.328;6.668;2023-04-21T05:47:31;6.80;;;3.75;;
77775;SDS011;66965;43.328;6.668;2023-04-21T05:49:56;6.33;;;3.33;;
77775;SDS011;66965;43.328;6.668;2023-04-21T05:52:21;7.97;;;3.30;;
77775;SDS011;66965;43.328;6.668;2023-04-21T05:54:47;7.17;;;3.20;;
77775;SDS011;66965;43.328;6.668;2023-04-21T05:57:12;8.77;;;3.23;;
77775;SDS011;66965;43.328;6.668;2023-04-21T05:59:37;7.40;;;3.50;;
77775;SDS011;66965;43.328;6.668;2023-04-21T06:02:03;6.57;;;3.08;;
77775;SDS011;66965;43.328;6.668;2023-04-21T06:04:28;7.57;;;3.70;;
77775;SDS011;66965;43.328;6.668;2023-04-21T06:06:54;5.30;;;3.50;;
77775;SDS011;66965;43.328;6.668;2023-04-21T06:09:19;17.05;;;4.03;;
77775;SDS011;66965;43.328;6.668;2023-04-21T06:11:44;6.70;;;3.10;;
77775;SDS011;66965;43.328;6.668;2023-04-21T06:14:09;8.47;;;3.50;;
77775;SDS011;66965;43.328;6.668;2023-04-21T06:16:35;7.90;;;3.53;;
77775;SDS011;66965;43.328;6.668;2023-04-21T06:19:00;5.87;;;3.50;;
77775;SDS011;66965;43.328;6.668;2023-04-21T06:21:25;6.70;;;3.47;;
77775;SDS011;66965;43.328;6.668;2023-04-21T06:23:51;6.63;;;3.30;;
77775;SDS011;66965;43.328;6.668;2023-04-21T06:26:16;4.93;;;3.27;;
77775;SDS011;66965;43.328;6.668;2023-04-21T06:28:41;8.63;;;4.97;;
77775;SDS011;66965;43.328;6.668;2023-04-21T06:31:06;7.03;;;3.73;;
77775;SDS011;66965;43.328;6.668;2023-04-21T06:33:33;6.72;;;3.05;;
77775;SDS011;66965;43.328;6.668;2023-04-21T06:35:59;8.23;;;3.80;;
77775;SDS011;66965;43.328;6.668;2023-04-21T06:38:24;5.97;;;2.97;;
77775;SDS011;66965;43.328;6.668;2023-04-21T06:40:49;6.47;;;3.47;;
77775;SDS011;66965;43.328;6.668;2023-04-21T06:43:15;7.78;;;3.80;;
77775;SDS011;66965;43.328;6.668;2023-04-21T06:45:40;6.87;;;3.07;;
77775;SDS011;66965;43.328;6.668;2023-04-21T06:48:05;7.60;;;3.60;;
77775;SDS011;66965;43.328;6.668;2023-04-21T06:50:31;4.80;;;2.90;;
77775;SDS011;66965;43.328;6.668;2023-04-21T06:52:56;8.20;;;3.23;;
77775;SDS011;66965;43.328;6.668;2023-04-21T06:55:21;7.93;;;3.57;;
77775;SDS011;66965;43.328;6.668;2023-04-21T06:57:46;7.20;;;3.38;;
77775;SDS011;66965;43.328;6.668;2023-04-21T07:00:12;5.17;;;2.70;;
77775;SDS011;66965;43.328;6.668;2023-04-21T07:02:37;8.00;;;4.18;;
77775;SDS011;66965;43.328;6.668;2023-04-21T07:05:03;6.43;;;3.35;;
77775;SDS011;66965;43.328;6.668;2023-04-21T07:07:28;7.18;;;3.30;;
77775;SDS011;66965;43.328;6.668;2023-04-21T07:09:53;8.57;;;3.83;;
77775;SDS011;66965;43.328;6.668;2023-04-21T07:12:19;7.50;;;3.60;;
77775;SDS011;66965;43.328;6.668;2023-04-21T07:14:44;12.75;;;4.15;;
77775;SDS011;66965;43.328;6.668;2023-04-21T07:17:09;8.32;;;3.45;;
77775;SDS011;66965;43.328;6.668;2023-04-21T07:19:35;6.60;;;3.23;;
77775;SDS011;66965;43.328;6.668;2023-04-21T07:22:01;6.03;;;3.53;;
77775;SDS011;66965;43.328;6.668;2023-04-21T07:24:26;9.83;;;3.67;;
77775;SDS011;66965;43.328;6.668;2023-04-21T07:26:51;9.87;;;4.43;;
77775;SDS011;66965;43.328;6.668;2023-04-21T07:29:17;10.43;;;4.50;;
77775;SDS011;66965;43.328;6.668;2023-04-21T07:31:42;10.77;;;3.70;;
77775;SDS011;66965;43.328;6.668;2023-04-21T07:34:07;10.23;;;3.87;;
77775;SDS011;66965;43.328;6.668;2023-04-21T07:36:32;7.53;;;3.43;;
77775;SDS011;66965;43.328;6.668;2023-04-21T07:38:58;5.83;;;3.17;;
77775;SDS011;66965;43.328;6.668;2023-04-21T07:41:23;7.10;;;3.60;;
77775;SDS011;66965;43.328;6.668;2023-04-21T07:43:48;6.47;;;3.30;;
77775;SDS011;66965;43.328;6.668;2023-04-21T07:46:13;8.30;;;3.50;;
77775;SDS011;66965;43.328;6.668;2023-04-21T07:48:39;7.43;;;3.50;;
77775;SDS011;66965;43.328;6.668;2023-04-21T07:51:04;10.38;;;4.15;;
77775;SDS011;66965;43.328;6.668;2023-04-21T07:53:30;9.70;;;4.00;;
77775;SDS011;66965;43.328;6.668;2023-04-21T07:55:55;9.90;;;3.73;;
77775;SDS011;66965;43.328;6.668;2023-04-21T07:58:21;8.47;;;3.57;;
77775;SDS011;66965;43.328;6.668;2023-04-21T08:00:46;11.55;;;3.72;;
77775;SDS011;66965;43.328;6.668;2023-04-21T08:03:11;13.77;;;4.53;;
77775;SDS011;66965;43.328;6.668;2023-04-21T08:05:36;10.87;;;3.93;;
77775;SDS011;66965;43.328;6.668;2023-04-21T08:08:02;7.13;;;3.50;;
77775;SDS011;66965;43.328;6.668;2023-04-21T08:10:27;6.47;;;3.50;;
77775;SDS011;66965;43.328;6.668;2023-04-21T08:12:53;6.47;;;3.00;;
77775;SDS011;66965;43.328;6.668;2023-04-21T08:15:18;7.43;;;3.43;;
77775;SDS011;66965;43.328;6.668;2023-04-21T08:17:43;10.50;;;3.85;;
77775;SDS011;66965;43.328;6.668;2023-04-21T08:20:09;7.95;;;3.58;;
77775;SDS011;66965;43.328;6.668;2023-04-21T08:22:35;5.95;;;3.55;;
77775;SDS011;66965;43.328;6.668;2023-04-21T08:25:00;9.65;;;3.10;;
77775;SDS011;66965;43.328;6.668;2023-04-21T08:27:26;7.90;;;3.35;;
77775;SDS011;66965;43.328;6.668;2023-04-21T08:29:51;10.37;;;3.80;;
77775;SDS011;66965;43.328;6.668;2023-04-21T08:32:16;6.80;;;3.10;;
77775;SDS011;66965;43.328;6.668;2023-04-21T08:34:47;6.05;;;3.38;;
77775;SDS011;66965;43.328;6.668;2023-04-21T08:37:13;8.52;;;3.20;;
77775;SDS011;66965;43.328;6.668;2023-04-21T08:39:38;12.57;;;3.90;;
77775;SDS011;66965;43.328;6.668;2023-04-21T08:42:03;5.87;;;3.10;;
77775;SDS011;66965;43.328;6.668;2023-04-21T08:44:29;7.82;;;3.50;;
77775;SDS011;66965;43.328;6.668;2023-04-21T08:46:55;10.40;;;4.00;;
77775;SDS011;66965;43.328;6.668;2023-04-21T08:49:20;8.77;;;3.72;;
77775;SDS011;66965;43.328;6.668;2023-04-21T08:51:46;6.10;;;3.90;;
77775;SDS011;66965;43.328;6.668;2023-04-21T08:54:11;8.43;;;3.07;;
77775;SDS011;66965;43.328;6.668;2023-04-21T08:56:37;10.88;;;3.75;;
77775;SDS011;66965;43.328;6.668;2023-04-21T08:59:03;9.32;;;3.50;;
77775;SDS011;66965;43.328;6.668;2023-04-21T09:01:29;6.70;;;3.37;;
77775;SDS011;66965;43.328;6.668;2023-04-21T09:03:58;9.20;;;3.70;;
77775;SDS011;66965;43.328;6.668;2023-04-21T09:06:39;9.18;;;3.42;;
77775;SDS011;66965;43.328;6.668;2023-04-21T09:09:07;7.60;;;3.15;;
77775;SDS011;66965;43.328;6.668;2023-04-21T09:11:33;6.47;;;2.87;;
77775;SDS011;66965;43.328;6.668;2023-04-21T09:13:58;9.77;;;3.35;;
77775;SDS011;66965;43.328;6.668;2023-04-21T09:16:24;7.37;;;3.77;;
77775;SDS011;66965;43.328;6.668;2023-04-21T09:18:53;15.77;;;5.00;;
77775;SDS011;66965;43.328;6.668;2023-04-21T09:21:18;7.83;;;2.77;;
77775;SDS011;66965;43.328;6.668;2023-04-21T09:23:45;7.07;;;3.15;;
77775;SDS011;66965;43.328;6.668;2023-04-21T09:26:10;7.68;;;2.75;;
77775;SDS011;66965;43.328;6.668;2023-04-21T09:28:36;5.85;;;2.92;;
77775;SDS011;66965;43.328;6.668;2023-04-21T09:31:04;9.38;;;3.05;;
77775;SDS011;66965;43.328;6.668;2023-04-21T09:36:01;8.13;;;2.83;;
77775;SDS011;66965;43.328;6.668;2023-04-21T09:38:27;8.35;;;3.30;;
77775;SDS011;66965;43.328;6.668;2023-04-21T09:40:58;11.33;;;3.10;;
77775;SDS011;66965;43.328;6.668;2023-04-21T09:43:24;5.97;;;2.63;;
77775;SDS011;66965;43.328;6.668;2023-04-21T09:45:50;11.25;;;4.03;;
77775;SDS011;66965;43.328;6.668;2023-04-21T09:48:16;6.83;;;3.00;;
77775;SDS011;66965;43.328;6.668;2023-04-21T09:50:41;10.63;;;2.65;;
77775;SDS011;66965;43.328;6.668;2023-04-21T09:55:32;11.27;;;2.93;;
77775;SDS011;66965;43.328;6.668;2023-04-21T09:57:59;5.80;;;2.50;;
77775;SDS011;66965;43.328;6.668;2023-04-21T10:00:25;6.55;;;2.70;;
77775;SDS011;66965;43.328;6.668;2023-04-21T10:02:52;9.15;;;3.45;;
77775;SDS011;66965;43.328;6.668;2023-04-21T10:07:43;5.37;;;2.80;;
77775;SDS011;66965;43.328;6.668;2023-04-21T10:10:17;9.68;;;2.88;;
77775;SDS011;66965;43.328;6.668;2023-04-21T10:12:43;5.40;;;2.25;;
77775;SDS011;66965;43.328;6.668;2023-04-21T10:17:33;8.27;;;2.50;;
77775;SDS011;66965;43.328;6.668;2023-04-21T10:20:00;5.93;;;2.30;;
77775;SDS011;66965;43.328;6.668;2023-04-21T10:22:31;7.45;;;2.63;;
77775;SDS011;66965;43.328;6.668;2023-04-21T10:24:57;4.80;;;2.42;;
77775;SDS011;66965;43.328;6.668;2023-04-21T10:27:33;10.05;;;3.42;;
77775;SDS011;66965;43.328;6.668;2023-04-21T10:29:59;8.77;;;2.30;;
77775;SDS011;66965;43.328;6.668;2023-04-21T10:35:22;6.85;;;2.55;;
77775;SDS011;66965;43.328;6.668;2023-04-21T10:37:49;5.97;;;2.30;;
77775;SDS011;66965;43.328;6.668;2023-04-21T10:40:34;7.53;;;2.58;;
77775;SDS011;66965;43.328;6.668;2023-04-21T10:43:01;7.70;;;2.20;;
77775;SDS011;66965;43.328;6.668;2023-04-21T10:45:26;5.72;;;2.33;;
77775;SDS011;66965;43.328;6.668;2023-04-21T10:47:52;5.30;;;2.10;;
77775;SDS011;66965;43.328;6.668;2023-04-21T10:50:18;5.83;;;2.60;;
77775;SDS011;66965;43.328;6.668;2023-04-21T10:52:51;7.20;;;2.70;;
77775;SDS011;66965;43.328;6.668;2023-04-21T10:55:17;4.25;;;1.95;;
77775;SDS011;66965;43.328;6.668;2023-04-21T10:57:43;5.73;;;2.30;;
77775;SDS011;66965;43.328;6.668;2023-04-21T11:00:09;6.53;;;2.00;;
77775;SDS011;66965;43.328;6.668;2023-04-21T11:02:35;6.03;;;2.05;;
77775;SDS011;66965;43.328;6.668;2023-04-21T11:05:00;4.63;;;1.80;;
77775;SDS011;66965;43.328;6.668;2023-04-21T11:07:26;4.23;;;1.77;;
77775;SDS011;66965;43.328;6.668;2023-04-21T11:09:58;5.13;;;2.10;;
77775;SDS011;66965;43.328;6.668;2023-04-21T11:12:28;9.82;;;2.72;;
77775;SDS011;66965;43.328;6.668;2023-04-21T11:14:54;5.82;;;2.40;;
77775;SDS011;66965;43.328;6.668;2023-04-21T11:17:19;4.90;;;2.28;;
77775;SDS011;66965;43.328;6.668;2023-04-21T11:19:50;7.05;;;2.50;;
77775;SDS011;66965;43.328;6.668;2023-04-21T11:22:16;5.75;;;2.30;;
77775;SDS011;66965;43.328;6.668;2023-04-21T11:24:44;6.00;;;2.10;;
77775;SDS011;66965;43.328;6.668;2023-04-21T11:27:10;7.63;;;2.50;;
77775;SDS011;66965;43.328;6.668;2023-04-21T11:29:36;7.95;;;2.30;;
77775;SDS011;66965;43.328;6.668;2023-04-21T11:32:04;5.10;;;2.33;;
77775;SDS011;66965;43.328;6.668;2023-04-21T11:34:29;4.10;;;2.17;;
77775;SDS011;66965;43.328;6.668;2023-04-21T11:36:55;4.78;;;2.05;;
77775;SDS011;66965;43.328;6.668;2023-04-21T11:39:21;4.97;;;2.58;;
77775;SDS011;66965;43.328;6.668;2023-04-21T11:41:47;5.20;;;2.20;;
77775;SDS011;66965;43.328;6.668;2023-04-21T11:44:13;6.60;;;2.13;;
77775;SDS011;66965;43.328;6.668;2023-04-21T11:46:45;5.65;;;2.13;;
77775;SDS011;66965;43.328;6.668;2023-04-21T11:49:10;7.13;;;2.10;;
77775;SDS011;66965;43.328;6.668;2023-04-21T11:51:37;5.95;;;2.40;;
77775;SDS011;66965;43.328;6.668;2023-04-21T11:54:03;5.97;;;2.30;;
77775;SDS011;66965;43.328;6.668;2023-04-21T11:56:29;5.07;;;2.53;;
77775;SDS011;66965;43.328;6.668;2023-04-21T11:58:54;4.30;;;2.13;;
77775;SDS011;66965;43.328;6.668;2023-04-21T12:01:20;5.82;;;2.40;;
77775;SDS011;66965;43.328;6.668;2023-04-21T12:03:54;6.45;;;2.67;;
77775;SDS011;66965;43.328;6.668;2023-04-21T12:06:20;6.90;;;2.38;;
77775;SDS011;66965;43.328;6.668;2023-04-21T12:08:46;5.68;;;2.33;;
77775;SDS011;66965;43.328;6.668;2023-04-21T12:11:11;4.87;;;2.13;;
77775;SDS011;66965;43.328;6.668;2023-04-21T12:13:38;4.43;;;2.10;;
77775;SDS011;66965;43.328;6.668;2023-04-21T12:16:04;7.10;;;2.28;;
77775;SDS011;66965;43.328;6.668;2023-04-21T12:18:30;5.72;;;2.10;;
77775;SDS011;66965;43.328;6.668;2023-04-21T12:20:55;4.28;;;2.00;;
77775;SDS011;66965;43.328;6.668;2023-04-21T12:23:25;4.82;;;2.30;;
77775;SDS011;66965;43.328;6.668;2023-04-21T12:25:50;5.07;;;2.15;;
77775;SDS011;66965;43.328;6.668;2023-04-21T12:28:16;6.72;;;2.10;;
77775;SDS011;66965;43.328;6.668;2023-04-21T12:30:42;5.28;;;1.92;;
77775;SDS011;66965;43.328;6.668;2023-04-21T12:33:07;5.00;;;2.37;;
77775;SDS011;66965;43.328;6.668;2023-04-21T12:35:32;5.73;;;2.20;;
77775;SDS011;66965;43.328;6.668;2023-04-21T12:37:58;5.75;;;2.65;;
77775;SDS011;66965;43.328;6.668;2023-04-21T12:40:23;4.00;;;2.00;;
77775;SDS011;66965;43.328;6.668;2023-04-21T12:42:48;7.30;;;2.20;;
77775;SDS011;66965;43.328;6.668;2023-04-21T12:45:14;5.30;;;2.67;;
77775;SDS011;66965;43.328;6.668;2023-04-21T12:50:06;5.57;;;2.40;;
77775;SDS011;66965;43.328;6.668;2023-04-21T12:52:31;8.40;;;2.75;;
77775;SDS011;66965;43.328;6.668;2023-04-21T12:54:57;4.00;;;2.20;;
77775;SDS011;66965;43.328;6.668;2023-04-21T12:57:22;6.07;;;2.37;;
77775;SDS011;66965;43.328;6.668;2023-04-21T12:59:47;4.43;;;2.00;;
77775;SDS011;66965;43.328;6.668;2023-04-21T13:02:12;6.60;;;2.13;;
77775;SDS011;66965;43.328;6.668;2023-04-21T13:04:38;7.13;;;2.10;;
77775;SDS011;66965;43.328;6.668;2023-04-21T13:07:05;4.55;;;2.30;;
77775;SDS011;66965;43.328;6.668;2023-04-21T13:09:31;4.67;;;2.27;;
77775;SDS011;66965;43.328;6.668;2023-04-21T13:11:56;4.37;;;1.80;;
77775;SDS011;66965;43.328;6.668;2023-04-21T13:14:21;4.90;;;2.30;;
77775;SDS011;66965;43.328;6.668;2023-04-21T13:16:47;3.67;;;2.07;;
77775;SDS011;66965;43.328;6.668;2023-04-21T13:19:12;4.80;;;2.13;;
77775;SDS011;66965;43.328;6.668;2023-04-21T13:21:37;5.53;;;2.00;;
77775;SDS011;66965;43.328;6.668;2023-04-21T13:24:03;4.20;;;1.97;;
77775;SDS011;66965;43.328;6.668;2023-04-21T13:28:53;4.50;;;2.20;;
77775;SDS011;66965;43.328;6.668;2023-04-21T13:33:43;4.63;;;2.00;;
77775;SDS011;66965;43.328;6.668;2023-04-21T13:36:09;7.30;;;2.33;;
77775;SDS011;66965;43.328;6.668;2023-04-21T13:41:00;4.13;;;2.00;;
77775;SDS011;66965;43.328;6.668;2023-04-21T13:43:25;4.13;;;2.13;;
77775;SDS011;66965;43.328;6.668;2023-04-21T13:48:19;3.87;;;1.90;;
77775;SDS011;66965;43.328;6.668;2023-04-21T13:50:45;4.68;;;2.35;;
77775;SDS011;66965;43.328;6.668;2023-04-21T13:53:10;4.88;;;2.30;;
77775;SDS011;66965;43.328;6.668;2023-04-21T13:58:00;4.13;;;2.10;;
77775;SDS011;66965;43.328;6.668;2023-04-21T14:02:51;4.10;;;2.00;;
77775;SDS011;66965;43.328;6.668;2023-04-21T14:07:42;5.83;;;2.00;;
77775;SDS011;66965;43.328;6.668;2023-04-21T14:10:08;4.43;;;1.90;;
77775;SDS011;66965;43.328;6.668;2023-04-21T14:12:35;8.32;;;2.40;;
77775;SDS011;66965;43.328;6.668;2023-04-21T14:15:00;8.83;;;2.27;;
77775;SDS011;66965;43.328;6.668;2023-04-21T14:19:51;4.75;;;2.00;;
77775;SDS011;66965;43.328;6.668;2023-04-21T14:24:41;4.05;;;2.28;;
77775;SDS011;66965;43.328;6.668;2023-04-21T14:29:32;4.72;;;2.05;;
77775;SDS011;66965;43.328;6.668;2023-04-21T14:34:23;4.10;;;2.28;;
77775;SDS011;66965;43.328;6.668;2023-04-21T14:36:50;5.20;;;1.95;;
77775;SDS011;66965;43.328;6.668;2023-04-21T14:41:40;5.07;;;2.22;;
77775;SDS011;66965;43.328;6.668;2023-04-21T14:44:06;6.47;;;1.90;;
77775;SDS011;66965;43.328;6.668;2023-04-21T14:48:56;4.10;;;2.27;;
77775;SDS011;66965;43.328;6.668;2023-04-21T14:53:47;4.23;;;2.40;;
77775;SDS011;66965;43.328;6.668;2023-04-21T14:58:37;5.20;;;3.03;;
77775;SDS011;66965;43.328;6.668;2023-04-21T15:01:02;4.93;;;2.70;;
77775;SDS011;66965;43.328;6.668;2023-04-21T15:05:53;4.25;;;2.10;;
77775;SDS011;66965;43.328;6.668;2023-04-21T15:10:43;5.32;;;2.33;;
77775;SDS011;66965;43.328;6.668;2023-04-21T15:15:34;5.65;;;2.55;;
77775;SDS011;66965;43.328;6.668;2023-04-21T15:17:59;4.23;;;2.30;;
77775;SDS011;66965;43.328;6.668;2023-04-21T15:22:50;4.05;;;2.10;;
77775;SDS011;66965;43.328;6.668;2023-04-21T15:25:15;4.70;;;2.40;;
77775;SDS011;66965;43.328;6.668;2023-04-21T15:27:40;4.50;;;2.43;;
77775;SDS011;66965;43.328;6.668;2023-04-21T15:30:06;4.17;;;2.43;;
77775;SDS011;66965;43.328;6.668;2023-04-21T15:32:31;4.55;;;2.20;;
77775;SDS011;66965;43.328;6.668;2023-04-21T15:34:56;4.93;;;2.40;;
77775;SDS011;66965;43.328;6.668;2023-04-21T15:39:47;4.57;;;2.40;;
77775;SDS011;66965;43.328;6.668;2023-04-21T15:42:12;5.03;;;2.10;;